Time;durP1;ratioP1;P1;durP2;ratioP2;P2;SDS_P1;SDS_P2;PMS_P1;PMS_P2;Temp;Humidity;BMP_temperature;BMP_pressure;BME280_temperature;BME280_humidity;BME280_pressure;Samples;Min_cycle;Max_cycle;Signal;HPM_P1;HPM_P2
2022/01/20 00:02:27;;;;;;;9.43;2.00;;;;;;;;;;5132794;27;20086;-63
2022/01/20 00:05:11;;;;;;;14.55;1.77;;;;;;;;;;5132443;27;20059;-63
2022/01/20 00:27:10;;;;;;;16.35;1.98;;;;;;;;;;5148979;27;20087;-63
2022/01/20 00:32:53;;;;;;;12.90;1.75;;;;;;;;;;5067239;28;20499;-63
2022/01/20 00:35:24;;;;;;;15.05;2.08;;;;;;;;;;5125716;27;20589;-63
2022/01/20 00:37:50;;;;;;;15.43;2.08;;;;;;;;;;5130709;27;20567;-63
2022/01/20 00:40:19;;;;;;;17.23;2.20;;;;;;;;;;5126354;27;20066;-63
2022/01/20 00:42:46;;;;;;;17.20;2.15;;;;;;;;;;5140712;27;20048;-63
2022/01/20 00:45:12;;;;;;;13.80;1.70;;;;;;;;;;5131934;27;20047;-63
2022/01/20 00:47:39;;;;;;;19.75;2.38;;;;;;;;;;5135443;27;20588;-63
2022/01/20 00:50:07;;;;;;;11.48;1.65;;;;;;;;;;5150893;27;20053;-62
2022/01/20 00:52:33;;;;;;;16.05;2.22;;;;;;;;;;5151459;27;20497;-63
2022/01/20 00:54:59;;;;;;;12.25;1.60;;;;;;;;;;5152473;27;20055;-63
2022/01/20 00:57:26;;;;;;;15.10;3.42;;;;;;;;;;5148475;27;20047;-63
2022/01/20 00:59:52;;;;;;;18.48;2.10;;;;;;;;;;5151918;27;20610;-63
2022/01/20 01:02:19;;;;;;;12.18;2.47;;;;;;;;;;5152420;27;20138;-63
2022/01/20 01:04:45;;;;;;;11.98;2.05;;;;;;;;;;5152884;27;20051;-63
2022/01/20 01:09:39;;;;;;;15.20;2.25;;;;;;;;;;5133393;27;20134;-63
2022/01/20 01:12:09;;;;;;;14.73;2.20;;;;;;;;;;5149228;27;20043;-63
2022/01/20 01:14:36;;;;;;;15.30;2.33;;;;;;;;;;5151487;27;20177;-63
2022/01/20 01:24:44;;;;;;;12.27;2.25;;;;;;;;;;5152150;27;20054;-63
2022/01/20 01:27:11;;;;;;;15.85;2.30;;;;;;;;;;5152331;27;20597;-63
2022/01/20 01:32:31;;;;;;;14.02;1.98;;;;;;;;;;5149772;27;20051;-63
2022/01/20 01:35:00;;;;;;;21.13;2.65;;;;;;;;;;5151475;27;20051;-63
2022/01/20 01:39:59;;;;;;;21.15;2.42;;;;;;;;;;5135564;27;20055;-64
2022/01/20 01:42:44;;;;;;;19.55;2.70;;;;;;;;;;5133705;27;20512;-63
2022/01/20 01:45:26;;;;;;;20.50;2.30;;;;;;;;;;5151597;27;20078;-63
2022/01/20 01:47:53;;;;;;;21.85;3.05;;;;;;;;;;5151309;27;20151;-63
2022/01/20 01:50:19;;;;;;;22.10;2.90;;;;;;;;;;5149651;27;20047;-63
2022/01/20 01:52:46;;;;;;;26.73;3.45;;;;;;;;;;5150842;27;20047;-63
2022/01/20 01:55:12;;;;;;;22.08;3.60;;;;;;;;;;5151433;27;20053;-63
2022/01/20 01:57:38;;;;;;;26.05;3.83;;;;;;;;;;5151575;27;20054;-63
2022/01/20 02:00:08;;;;;;;24.38;2.92;;;;;;;;;;5145501;27;20135;-63
2022/01/20 02:02:35;;;;;;;21.70;2.83;;;;;;;;;;5130148;27;20582;-63
2022/01/20 02:05:04;;;;;;;21.33;2.90;;;;;;;;;;5143395;27;20051;-63
2022/01/20 02:07:59;;;;;;;26.45;2.75;;;;;;;;;;5132232;27;20060;-63
2022/01/20 02:21:05;;;;;;;18.83;3.10;;;;;;;;;;5149068;27;20073;-62
2022/01/20 02:23:32;;;;;;;16.80;2.30;;;;;;;;;;5150349;27;20108;-61
2022/01/20 02:25:58;;;;;;;21.83;2.28;;;;;;;;;;5150759;27;20055;-61
2022/01/20 02:28:27;;;;;;;21.38;2.42;;;;;;;;;;5150460;27;20134;-61
2022/01/20 02:30:54;;;;;;;16.75;2.20;;;;;;;;;;5148742;27;20055;-62
2022/01/20 02:33:21;;;;;;;25.45;3.22;;;;;;;;;;5150813;27;20047;-61
2022/01/20 02:35:50;;;;;;;15.98;2.20;;;;;;;;;;5150375;27;20179;-61
2022/01/20 02:38:30;;;;;;;20.35;2.92;;;;;;;;;;5135120;27;20118;-61
2022/01/20 02:46:29;;;;;;;16.38;2.38;;;;;;;;;;5129644;27;20053;-61
2022/01/20 02:48:56;;;;;;;16.95;2.20;;;;;;;;;;5129097;27;20055;-61
2022/01/20 02:51:22;;;;;;;17.58;2.50;;;;;;;;;;5129668;27;20589;-61
2022/01/20 02:53:49;;;;;;;22.10;2.80;;;;;;;;;;5129672;27;20060;-61
2022/01/20 02:56:15;;;;;;;10.52;1.70;;;;;;;;;;5129184;27;20422;-61
2022/01/20 02:58:41;;;;;;;21.52;3.65;;;;;;;;;;5141472;27;20051;-61
2022/01/20 03:01:08;;;;;;;10.50;2.15;;;;;;;;;;5133725;27;20138;-61
2022/01/20 03:03:35;;;;;;;26.00;3.13;;;;;;;;;;5129384;27;20058;-61
2022/01/20 03:06:04;;;;;;;19.30;2.15;;;;;;;;;;5129455;27;20053;-61
2022/01/20 03:08:31;;;;;;;20.10;2.28;;;;;;;;;;5129260;27;20138;-62
2022/01/20 03:10:57;;;;;;;12.13;2.15;;;;;;;;;;5141865;27;20521;-62
2022/01/20 03:13:24;;;;;;;18.08;2.28;;;;;;;;;;5144606;27;20524;-62
2022/01/20 03:15:51;;;;;;;14.50;1.83;;;;;;;;;;5149893;27;20053;-62
2022/01/20 03:18:17;;;;;;;18.38;1.95;;;;;;;;;;5150692;27;20569;-61
2022/01/20 03:20:44;;;;;;;17.23;2.65;;;;;;;;;;5146942;27;20082;-62
2022/01/20 03:23:10;;;;;;;19.70;2.30;;;;;;;;;;5132870;27;20079;-61
2022/01/20 03:25:36;;;;;;;19.05;1.85;;;;;;;;;;5129164;27;20048;-61
2022/01/20 03:28:03;;;;;;;17.88;2.65;;;;;;;;;;5129413;27;20051;-61
2022/01/20 03:30:29;;;;;;;14.10;1.85;;;;;;;;;;5129273;27;20142;-61
2022/01/20 03:32:56;;;;;;;7.35;1.48;;;;;;;;;;5128964;27;20086;-61
2022/01/20 03:35:23;;;;;;;10.25;1.50;;;;;;;;;;5130134;27;20059;-62
2022/01/20 03:37:49;;;;;;;11.02;1.75;;;;;;;;;;5149949;27;20519;-62
2022/01/20 03:40:17;;;;;;;13.55;1.52;;;;;;;;;;5148006;27;20062;-61
2022/01/20 03:42:44;;;;;;;11.50;1.80;;;;;;;;;;5149538;27;20066;-61
2022/01/20 03:45:10;;;;;;;12.45;1.85;;;;;;;;;;5149333;27;20050;-62
2022/01/20 03:47:36;;;;;;;8.52;1.60;;;;;;;;;;5140369;27;20048;-61
2022/01/20 03:52:29;;;;;;;10.45;1.55;;;;;;;;;;5129319;27;20464;-61
2022/01/20 03:54:56;;;;;;;8.73;1.80;;;;;;;;;;5128707;27;20143;-62
2022/01/20 03:57:23;;;;;;;9.77;1.45;;;;;;;;;;5129082;27;20430;-61
2022/01/20 03:59:49;;;;;;;12.13;1.48;;;;;;;;;;5129042;27;20062;-62
2022/01/20 04:02:15;;;;;;;13.48;1.55;;;;;;;;;;5146957;27;20413;-62
2022/01/20 04:04:42;;;;;;;12.52;1.63;;;;;;;;;;5149502;27;20041;-62
2022/01/20 04:07:08;;;;;;;12.00;1.70;;;;;;;;;;5149734;27;20057;-61
2022/01/20 04:09:35;;;;;;;11.00;1.33;;;;;;;;;;5148791;27;20055;-61
2022/01/20 04:12:01;;;;;;;8.00;1.40;;;;;;;;;;5127152;27;20852;-61
2022/01/20 04:14:31;;;;;;;12.35;1.83;;;;;;;;;;5149318;27;20055;-61
2022/01/20 04:19:26;;;;;;;9.63;1.55;;;;;;;;;;5148092;27;20142;-61
2022/01/20 04:21:52;;;;;;;20.80;1.30;;;;;;;;;;5133985;27;20043;-61
2022/01/20 04:24:18;;;;;;;11.05;1.73;;;;;;;;;;5128147;27;20043;-62
2022/01/20 04:26:45;;;;;;;11.27;1.73;;;;;;;;;;5128307;27;20131;-62
2022/01/20 04:29:13;;;;;;;7.93;1.38;;;;;;;;;;5127945;27;20070;-62
2022/01/20 04:31:40;;;;;;;7.82;1.10;;;;;;;;;;5139576;27;20560;-62
2022/01/20 04:34:07;;;;;;;6.07;1.35;;;;;;;;;;5151017;27;20485;-61
2022/01/20 04:36:37;;;;;;;13.95;1.40;;;;;;;;;;5152579;27;20051;-61
2022/01/20 04:39:04;;;;;;;21.23;2.58;;;;;;;;;;5146860;27;20051;-62
2022/01/20 04:41:31;;;;;;;16.08;2.10;;;;;;;;;;5135353;27;20068;-61
2022/01/20 04:43:57;;;;;;;15.18;2.22;;;;;;;;;;5152491;27;20059;-62
2022/01/20 04:46:34;;;;;;;19.52;2.60;;;;;;;;;;5152422;27;20058;-61
2022/01/20 04:59:32;;;;;;;27.23;2.83;;;;;;;;;;5151370;27;20061;-61
2022/01/20 05:01:58;;;;;;;22.38;3.03;;;;;;;;;;5140673;27;20055;-61
2022/01/20 05:04:25;;;;;;;14.70;2.58;;;;;;;;;;5131486;27;20541;-61
2022/01/20 05:06:54;;;;;;;18.35;3.03;;;;;;;;;;5130924;27;20497;-61
2022/01/20 05:09:22;;;;;;;24.08;3.10;;;;;;;;;;5131071;27;20143;-61
2022/01/20 05:11:57;;;;;;;26.75;2.92;;;;;;;;;;5134594;27;20432;-61
2022/01/20 05:14:23;;;;;;;29.20;3.38;;;;;;;;;;5130709;27;20062;-61
2022/01/20 05:16:55;;;;;;;23.90;2.28;;;;;;;;;;5131291;27;20497;-61
2022/01/20 05:19:25;;;;;;;20.40;3.05;;;;;;;;;;5130882;27;20150;-61
2022/01/20 05:21:52;;;;;;;28.67;2.95;;;;;;;;;;5131276;27;20050;-61
2022/01/20 05:24:19;;;;;;;20.88;2.95;;;;;;;;;;5130851;27;20056;-61
2022/01/20 05:26:46;;;;;;;15.70;2.45;;;;;;;;;;5130335;27;20056;-61
2022/01/20 05:29:12;;;;;;;17.40;2.88;;;;;;;;;;5131603;27;20058;-62
2022/01/20 05:31:39;;;;;;;19.48;2.83;;;;;;;;;;5130337;27;20086;-62
2022/01/20 05:34:05;;;;;;;21.23;2.80;;;;;;;;;;5130856;27;20047;-62
2022/01/20 05:36:31;;;;;;;23.30;3.85;;;;;;;;;;5143997;27;20503;-62
2022/01/20 05:38:58;;;;;;;23.10;3.15;;;;;;;;;;5151168;27;20047;-62
2022/01/20 05:41:24;;;;;;;18.80;2.63;;;;;;;;;;5134010;27;20150;-62
2022/01/20 05:43:50;;;;;;;21.50;2.92;;;;;;;;;;5132675;27;20051;-62
2022/01/20 05:46:21;;;;;;;23.08;3.20;;;;;;;;;;5131330;27;20051;-62
2022/01/20 05:48:48;;;;;;;30.15;3.10;;;;;;;;;;5130754;27;20138;-62
2022/01/20 05:51:15;;;;;;;16.65;2.40;;;;;;;;;;5130599;27;20056;-61
2022/01/20 05:53:42;;;;;;;17.70;2.72;;;;;;;;;;5130246;27;20052;-62
2022/01/20 05:56:08;;;;;;;12.93;2.15;;;;;;;;;;5130665;27;20161;-62
2022/01/20 05:58:36;;;;;;;14.95;2.42;;;;;;;;;;5130761;27;20512;-62
2022/01/20 06:01:06;;;;;;;22.85;2.90;;;;;;;;;;5135531;27;20062;-62
2022/01/20 06:03:36;;;;;;;16.10;2.25;;;;;;;;;;5130118;27;20047;-62
2022/01/20 06:06:04;;;;;;;22.05;3.17;;;;;;;;;;5130497;27;20051;-62
2022/01/20 06:08:30;;;;;;;19.60;3.22;;;;;;;;;;5129958;27;20054;-62
2022/01/20 06:11:14;;;;;;;16.55;2.90;;;;;;;;;;5135435;27;20060;-63
2022/01/20 06:13:40;;;;;;;15.98;2.30;;;;;;;;;;5128291;27;20495;-62
2022/01/20 06:16:07;;;;;;;21.77;3.00;;;;;;;;;;5129403;27;20152;-62
2022/01/20 06:18:33;;;;;;;14.93;2.47;;;;;;;;;;5129763;27;20083;-62
2022/01/20 06:21:00;;;;;;;15.20;1.85;;;;;;;;;;5129435;27;20079;-62
2022/01/20 06:23:26;;;;;;;15.63;2.30;;;;;;;;;;5130034;27;20062;-62
2022/01/20 06:25:52;;;;;;;13.88;2.40;;;;;;;;;;5129894;27;20043;-62
2022/01/20 06:28:19;;;;;;;16.63;2.90;;;;;;;;;;5130110;27;20054;-62
2022/01/20 06:30:46;;;;;;;12.52;1.63;;;;;;;;;;5130096;27;20528;-62
2022/01/20 06:33:12;;;;;;;14.40;2.03;;;;;;;;;;5150091;27;20957;-62
2022/01/20 06:35:39;;;;;;;17.77;2.63;;;;;;;;;;5143489;27;20055;-62
2022/01/20 06:38:05;;;;;;;19.15;2.72;;;;;;;;;;5132347;27;20078;-62
2022/01/20 06:40:32;;;;;;;14.13;1.85;;;;;;;;;;5142795;27;20139;-62
2022/01/20 06:42:59;;;;;;;12.45;3.05;;;;;;;;;;5135815;27;20509;-62
2022/01/20 06:45:25;;;;;;;11.57;1.92;;;;;;;;;;5130101;27;20528;-62
2022/01/20 06:47:51;;;;;;;17.52;2.38;;;;;;;;;;5134598;27;20051;-62
2022/01/20 06:50:18;;;;;;;20.50;2.38;;;;;;;;;;5129089;27;20063;-62
2022/01/20 06:52:44;;;;;;;11.55;2.40;;;;;;;;;;5131609;27;20048;-62
2022/01/20 06:55:13;;;;;;;15.10;2.00;;;;;;;;;;5129507;27;20146;-62
2022/01/20 06:57:39;;;;;;;13.07;2.17;;;;;;;;;;5129987;27;20052;-62
2022/01/20 07:00:10;;;;;;;17.25;3.28;;;;;;;;;;5132016;27;20155;-62
2022/01/20 07:02:37;;;;;;;12.13;1.92;;;;;;;;;;5136286;27;20053;-62
2022/01/20 07:05:04;;;;;;;13.15;1.85;;;;;;;;;;5132605;27;20116;-62
2022/01/20 07:07:31;;;;;;;13.48;2.00;;;;;;;;;;5146549;27;20527;-63
2022/01/20 07:09:57;;;;;;;15.77;2.00;;;;;;;;;;5132059;27;20117;-63
2022/01/20 07:12:24;;;;;;;11.75;1.80;;;;;;;;;;5140734;27;20130;-62
2022/01/20 07:14:50;;;;;;;19.10;2.33;;;;;;;;;;5136336;27;20065;-63
2022/01/20 07:17:17;;;;;;;16.52;2.17;;;;;;;;;;5126993;27;20880;-63
2022/01/20 07:19:43;;;;;;;18.17;2.15;;;;;;;;;;5128258;27;20058;-62
2022/01/20 07:22:09;;;;;;;11.32;2.50;;;;;;;;;;5128943;27;20051;-62
2022/01/20 07:24:36;;;;;;;14.52;2.10;;;;;;;;;;5128631;27;20074;-62
2022/01/20 07:27:03;;;;;;;7.65;1.52;;;;;;;;;;5128350;27;20083;-62
2022/01/20 07:29:31;;;;;;;13.05;1.80;;;;;;;;;;5129124;27;20056;-63
2022/01/20 07:32:03;;;;;;;12.15;2.20;;;;;;;;;;5128831;27;20565;-62
2022/01/20 07:34:30;;;;;;;16.05;2.45;;;;;;;;;;5129151;27;20054;-62
2022/01/20 07:36:56;;;;;;;13.63;1.90;;;;;;;;;;5128236;27;20056;-62
2022/01/20 07:39:23;;;;;;;11.57;1.50;;;;;;;;;;5129105;27;20056;-62
2022/01/20 07:41:49;;;;;;;16.60;2.20;;;;;;;;;;5127940;27;20047;-63
2022/01/20 07:44:17;;;;;;;14.48;1.73;;;;;;;;;;5135096;27;20057;-63
2022/01/20 07:46:44;;;;;;;10.90;2.05;;;;;;;;;;5142411;27;20132;-63
2022/01/20 07:49:10;;;;;;;12.32;1.92;;;;;;;;;;5135142;27;20163;-63
2022/01/20 07:51:36;;;;;;;13.68;2.55;;;;;;;;;;5135518;27;20481;-64
2022/01/20 07:54:03;;;;;;;16.67;2.00;;;;;;;;;;5138841;27;20044;-63
2022/01/20 07:56:29;;;;;;;15.82;1.73;;;;;;;;;;5140060;27;20057;-64
2022/01/20 07:58:56;;;;;;;17.95;1.77;;;;;;;;;;5132476;27;20079;-63
2022/01/20 08:01:24;;;;;;;10.10;1.60;;;;;;;;;;5134125;27;20055;-63
2022/01/20 08:03:52;;;;;;;15.50;2.67;;;;;;;;;;5136118;27;20074;-63
2022/01/20 08:06:25;;;;;;;13.82;1.88;;;;;;;;;;5137645;27;20053;-64
2022/01/20 08:08:51;;;;;;;16.10;1.73;;;;;;;;;;5139447;27;20149;-63
2022/01/20 08:11:19;;;;;;;13.50;2.05;;;;;;;;;;5137840;27;20588;-63
2022/01/20 08:13:45;;;;;;;11.27;1.47;;;;;;;;;;5134323;27;20062;-63
2022/01/20 08:16:12;;;;;;;11.98;2.35;;;;;;;;;;5151801;27;20051;-63
2022/01/20 08:18:39;;;;;;;16.63;2.38;;;;;;;;;;5153210;27;20051;-64
2022/01/20 08:21:05;;;;;;;16.88;2.50;;;;;;;;;;5134899;27;20058;-63
2022/01/20 08:23:31;;;;;;;17.13;3.38;;;;;;;;;;5133120;27;20515;-63
2022/01/20 08:25:58;;;;;;;19.65;2.00;;;;;;;;;;5144955;27;20051;-63
2022/01/20 08:28:24;;;;;;;27.33;2.70;;;;;;;;;;5133456;27;20150;-63
2022/01/20 08:30:51;;;;;;;12.93;2.28;;;;;;;;;;5142040;27;20062;-63
2022/01/20 08:33:17;;;;;;;18.10;2.20;;;;;;;;;;5152896;27;20062;-65
2022/01/20 08:35:44;;;;;;;14.73;2.40;;;;;;;;;;5143238;27;20565;-64
2022/01/20 08:38:10;;;;;;;16.30;2.20;;;;;;;;;;5149706;27;20570;-65
2022/01/20 08:40:36;;;;;;;14.90;2.55;;;;;;;;;;5151054;27;20048;-65
2022/01/20 08:43:03;;;;;;;13.98;2.17;;;;;;;;;;5142958;27;20057;-64
2022/01/20 08:45:30;;;;;;;18.10;2.72;;;;;;;;;;5141739;27;20043;-64
2022/01/20 08:47:57;;;;;;;19.67;2.83;;;;;;;;;;5137220;27;20055;-64
2022/01/20 08:50:25;;;;;;;13.57;2.25;;;;;;;;;;5140794;27;20057;-64
2022/01/20 08:52:51;;;;;;;14.85;2.20;;;;;;;;;;5142660;27;20519;-64
2022/01/20 08:55:18;;;;;;;14.88;2.47;;;;;;;;;;5148778;27;20062;-64
2022/01/20 08:57:45;;;;;;;7.60;1.38;;;;;;;;;;5141218;27;20416;-64
2022/01/20 09:00:13;;;;;;;25.48;3.22;;;;;;;;;;5140947;27;20058;-64
2022/01/20 09:02:39;;;;;;;20.60;3.00;;;;;;;;;;5150660;27;20061;-63
2022/01/20 09:05:06;;;;;;;15.25;2.88;;;;;;;;;;5143409;27;20055;-64
2022/01/20 09:07:33;;;;;;;15.73;2.78;;;;;;;;;;5115890;27;20187;-64
2022/01/20 09:10:00;;;;;;;21.70;2.50;;;;;;;;;;5141690;27;20048;-65
2022/01/20 09:17:45;;;;;;;21.67;2.28;;;;;;;;;;5150890;27;20531;-63
2022/01/20 09:20:12;;;;;;;16.08;2.55;;;;;;;;;;5136245;27;20050;-63
2022/01/20 09:22:38;;;;;;;14.90;1.88;;;;;;;;;;5152291;27;20138;-64
2022/01/20 09:25:06;;;;;;;17.33;2.22;;;;;;;;;;5151009;27;20047;-64
2022/01/20 09:27:32;;;;;;;14.80;1.92;;;;;;;;;;5145205;27;20062;-64
2022/01/20 09:30:01;;;;;;;11.48;2.00;;;;;;;;;;5131371;27;20055;-64
2022/01/20 09:32:30;;;;;;;;;;;;;;;;;;5136339;27;20047;-65
2022/01/20 09:34:56;;;;;;;11.88;1.80;;;;;;;;;;5135589;27;44699;-64
2022/01/20 09:37:25;;;;;;;18.60;2.42;;;;;;;;;;5134610;27;20176;-64
2022/01/20 09:39:52;;;;;;;14.75;2.30;;;;;;;;;;5134265;27;20105;-64
2022/01/20 09:42:18;;;;;;;14.30;2.85;;;;;;;;;;5130209;27;20062;-64
2022/01/20 09:44:46;;;;;;;12.13;1.90;;;;;;;;;;5139063;27;20051;-64
2022/01/20 09:47:15;;;;;;;14.88;2.40;;;;;;;;;;5140684;27;20079;-64
2022/01/20 09:49:42;;;;;;;19.02;2.03;;;;;;;;;;5140401;27;20043;-64
2022/01/20 09:52:09;;;;;;;12.73;1.85;;;;;;;;;;5150421;27;20055;-64
2022/01/20 09:54:36;;;;;;;14.65;1.55;;;;;;;;;;5140276;27;20062;-64
2022/01/20 09:57:02;;;;;;;9.65;1.98;;;;;;;;;;5132493;27;20048;-64
2022/01/20 09:59:30;;;;;;;12.00;1.85;;;;;;;;;;5135472;27;20043;-64
2022/01/20 10:01:58;;;;;;;18.23;1.75;;;;;;;;;;5134497;27;20044;-64
2022/01/20 10:04:29;;;;;;;15.02;1.60;;;;;;;;;;5138278;27;20058;-64
2022/01/20 10:07:03;;;;;;;11.57;2.03;;;;;;;;;;5151076;27;20439;-64
2022/01/20 10:09:33;;;;;;;15.65;2.30;;;;;;;;;;5146109;27;20051;-66
2022/01/20 10:12:00;;;;;;;15.07;2.20;;;;;;;;;;5133409;27;20105;-67
2022/01/20 10:14:37;;;;;;;11.65;1.95;;;;;;;;;;5143776;27;20090;-67
2022/01/20 10:17:13;;;;;;;15.02;2.30;;;;;;;;;;5145346;27;20054;-65
2022/01/20 10:19:39;;;;;;;23.83;2.83;;;;;;;;;;5149335;27;20124;-65
2022/01/20 10:22:10;;;;;;;16.73;2.50;;;;;;;;;;5150614;27;20058;-66
2022/01/20 10:24:36;;;;;;;23.67;2.63;;;;;;;;;;5150724;27;20490;-65
2022/01/20 10:27:08;;;;;;;10.98;1.90;;;;;;;;;;5140736;27;20047;-65
2022/01/20 10:29:34;;;;;;;13.18;2.03;;;;;;;;;;5145361;27;20058;-64
2022/01/20 10:32:18;;;;;;;10.75;1.88;;;;;;;;;;5147807;27;20054;-64
2022/01/20 10:34:46;;;;;;;22.07;2.67;;;;;;;;;;5131859;27;20051;-64
2022/01/20 10:37:16;;;;;;;9.65;1.83;;;;;;;;;;5111997;27;20063;-64
2022/01/20 10:39:45;;;;;;;15.48;2.13;;;;;;;;;;5139731;27;20691;-64
2022/01/20 10:42:15;;;;;;;14.13;2.17;;;;;;;;;;5148599;27;20512;-64
2022/01/20 10:44:44;;;;;;;12.10;2.40;;;;;;;;;;5142600;27;20047;-65
2022/01/20 10:47:21;;;;;;;12.65;1.95;;;;;;;;;;5133033;27;20051;-65
2022/01/20 10:49:49;;;;;;;13.77;2.25;;;;;;;;;;5133916;27;20051;-64
2022/01/20 10:52:22;;;;;;;8.17;1.93;;;;;;;;;;5132347;27;20062;-64
2022/01/20 10:54:51;;;;;;;10.52;1.88;;;;;;;;;;5130271;27;20082;-64
2022/01/20 10:57:24;;;;;;;9.82;1.48;;;;;;;;;;5129503;27;20102;-64
2022/01/20 10:59:52;;;;;;;11.43;1.75;;;;;;;;;;5145878;27;20051;-64
2022/01/20 11:02:19;;;;;;;8.57;1.63;;;;;;;;;;5144565;27;20055;-64
2022/01/20 11:04:46;;;;;;;12.77;1.75;;;;;;;;;;5128759;27;20272;-65
2022/01/20 11:07:13;;;;;;;13.82;2.10;;;;;;;;;;5129960;27;20521;-65
2022/01/20 11:09:43;;;;;;;13.30;1.98;;;;;;;;;;5129407;27;20150;-65
2022/01/20 11:12:11;;;;;;;9.52;2.00;;;;;;;;;;5128707;27;20055;-65
2022/01/20 11:14:38;;;;;;;7.47;1.73;;;;;;;;;;5129042;27;20065;-64
2022/01/20 11:17:04;;;;;;;13.38;1.90;;;;;;;;;;5132878;27;20047;-64
2022/01/20 11:19:36;;;;;;;9.85;1.83;;;;;;;;;;5129834;27;20441;-64
2022/01/20 11:22:06;;;;;;;12.65;2.22;;;;;;;;;;5138056;27;20178;-64
2022/01/20 11:24:33;;;;;;;14.00;1.70;;;;;;;;;;5137670;27;20102;-64
2022/01/20 11:27:00;;;;;;;12.15;1.83;;;;;;;;;;5130925;27;20051;-64
2022/01/20 11:29:38;;;;;;;6.53;1.30;;;;;;;;;;5140027;27;20065;-64
2022/01/20 11:32:35;;;;;;;12.15;1.50;;;;;;;;;;5137434;27;20055;-65
2022/01/20 11:35:01;;;;;;;10.40;1.80;;;;;;;;;;5117000;27;20073;-64
2022/01/20 11:37:32;;;;;;;9.75;1.40;;;;;;;;;;5135241;27;20054;-64
2022/01/20 11:40:12;;;;;;;11.65;1.88;;;;;;;;;;5136366;27;20058;-64
2022/01/20 11:42:39;;;;;;;13.07;2.10;;;;;;;;;;5133145;27;20055;-65
2022/01/20 11:45:21;;;;;;;10.25;1.60;;;;;;;;;;5132735;27;20075;-64
2022/01/20 11:47:47;;;;;;;11.65;2.10;;;;;;;;;;5137218;27;20506;-64
2022/01/20 11:50:14;;;;;;;10.90;1.77;;;;;;;;;;5137266;27;20064;-65
2022/01/20 11:52:41;;;;;;;9.18;1.63;;;;;;;;;;5129079;27;20512;-66
2022/01/20 11:55:26;;;;;;;13.15;1.98;;;;;;;;;;5129303;27;20508;-66
2022/01/20 11:57:53;;;;;;;12.57;1.90;;;;;;;;;;5142745;27;20047;-66
2022/01/20 12:00:23;;;;;;;15.77;2.10;;;;;;;;;;5131885;27;20054;-66
2022/01/20 12:02:49;;;;;;;12.38;1.80;;;;;;;;;;5128767;27;20946;-66
2022/01/20 12:05:18;;;;;;;15.27;2.22;;;;;;;;;;5148272;27;20047;-66
2022/01/20 12:07:45;;;;;;;21.52;3.00;;;;;;;;;;5130977;27;20846;-66
2022/01/20 12:10:12;;;;;;;12.55;1.85;;;;;;;;;;5140017;27;20062;-66
2022/01/20 12:12:40;;;;;;;18.65;2.78;;;;;;;;;;5142592;27;20062;-67
2022/01/20 12:15:11;;;;;;;14.48;2.25;;;;;;;;;;5128672;27;20052;-66
2022/01/20 12:17:41;;;;;;;11.55;1.60;;;;;;;;;;5135828;27;20055;-66
2022/01/20 12:20:08;;;;;;;8.80;1.80;;;;;;;;;;5149924;27;20047;-65
2022/01/20 12:22:41;;;;;;;11.07;2.45;;;;;;;;;;5149711;27;20051;-66
2022/01/20 12:25:13;;;;;;;17.73;2.53;;;;;;;;;;5145914;27;20079;-66
2022/01/20 12:27:42;;;;;;;13.90;2.30;;;;;;;;;;5140130;27;20456;-66
2022/01/20 12:30:15;;;;;;;12.73;1.80;;;;;;;;;;5128954;27;20056;-66
2022/01/20 12:32:41;;;;;;;9.30;1.63;;;;;;;;;;5128746;27;20058;-66
2022/01/20 12:35:08;;;;;;;13.52;2.17;;;;;;;;;;5128634;27;20082;-65
2022/01/20 12:37:38;;;;;;;12.20;2.20;;;;;;;;;;5140768;27;20535;-65
2022/01/20 12:40:18;;;;;;;16.92;1.83;;;;;;;;;;5128009;27;20086;-66
2022/01/20 12:42:44;;;;;;;14.10;1.83;;;;;;;;;;5143575;27;20062;-66
2022/01/20 12:48:12;;;;;;;17.38;2.83;;;;;;;;;;5141278;27;20071;-66
2022/01/20 12:50:38;;;;;;;9.98;1.63;;;;;;;;;;5131309;27;20055;-68
2022/01/20 12:53:04;;;;;;;21.00;2.65;;;;;;;;;;5134332;27;20051;-66
2022/01/20 12:55:30;;;;;;;14.30;2.42;;;;;;;;;;5145608;27;20051;-66
2022/01/20 12:57:58;;;;;;;10.10;2.15;;;;;;;;;;5135173;27;20056;-67
2022/01/20 13:00:24;;;;;;;14.65;2.75;;;;;;;;;;5131951;27;20055;-66
2022/01/20 13:02:50;;;;;;;8.20;1.60;;;;;;;;;;5131093;27;20137;-66
2022/01/20 13:05:19;;;;;;;19.10;2.20;;;;;;;;;;5137812;27;20444;-66
2022/01/20 13:07:50;;;;;;;11.90;2.00;;;;;;;;;;5130635;27;20139;-66
2022/01/20 13:10:34;;;;;;;10.13;1.75;;;;;;;;;;5139819;27;20932;-67
2022/01/20 13:13:05;;;;;;;10.40;1.63;;;;;;;;;;5143810;27;20054;-66
2022/01/20 13:15:32;;;;;;;12.30;2.05;;;;;;;;;;5135151;27;20504;-66
2022/01/20 13:18:06;;;;;;;10.10;1.73;;;;;;;;;;5134862;27;20051;-66
2022/01/20 13:20:32;;;;;;;11.82;2.50;;;;;;;;;;5139162;27;20048;-66
2022/01/20 13:23:01;;;;;;;13.10;1.75;;;;;;;;;;5148177;27;20047;-65
2022/01/20 13:25:29;;;;;;;10.30;1.65;;;;;;;;;;5131467;27;20832;-66
2022/01/20 13:28:03;;;;;;;22.75;2.17;;;;;;;;;;5133670;27;20049;-66
2022/01/20 13:30:39;;;;;;;13.40;2.20;;;;;;;;;;5131233;27;20055;-66
2022/01/20 13:33:12;;;;;;;15.43;2.10;;;;;;;;;;5132043;27;20076;-66
2022/01/20 13:35:40;;;;;;;19.90;2.58;;;;;;;;;;5133268;27;20130;-66
2022/01/20 13:38:08;;;;;;;16.17;1.90;;;;;;;;;;5146712;27;20051;-65
2022/01/20 13:40:35;;;;;;;12.73;2.20;;;;;;;;;;5140734;27;20047;-65
2022/01/20 13:45:42;;;;;;;20.33;2.58;;;;;;;;;;5140754;27;20135;-65
2022/01/20 13:48:09;;;;;;;16.23;2.65;;;;;;;;;;5143790;27;20146;-65
2022/01/20 13:50:38;;;;;;;19.88;1.98;;;;;;;;;;5138926;27;20061;-65
2022/01/20 13:53:18;;;;;;;14.15;2.47;;;;;;;;;;5137443;27;20051;-65
2022/01/20 13:55:45;;;;;;;15.48;2.15;;;;;;;;;;5131314;27;20058;-65
2022/01/20 13:58:22;;;;;;;15.38;2.50;;;;;;;;;;5139372;27;20059;-64
2022/01/20 14:00:48;;;;;;;14.30;1.90;;;;;;;;;;5143359;27;20047;-64
2022/01/20 14:03:15;;;;;;;14.25;2.33;;;;;;;;;;5135170;27;20047;-65
2022/01/20 14:05:46;;;;;;;18.75;2.40;;;;;;;;;;5138487;27;20051;-65
2022/01/20 14:08:12;;;;;;;9.52;2.17;;;;;;;;;;5140581;27;20058;-64
2022/01/20 14:10:39;;;;;;;14.43;2.17;;;;;;;;;;5143389;27;20051;-65
2022/01/20 14:13:05;;;;;;;16.55;2.30;;;;;;;;;;5131538;27;20073;-64
2022/01/20 14:15:31;;;;;;;12.40;2.50;;;;;;;;;;5129720;27;20496;-64
2022/01/20 14:18:02;;;;;;;15.50;2.33;;;;;;;;;;5129808;27;20138;-64
2022/01/20 14:20:34;;;;;;;17.98;2.30;;;;;;;;;;5116107;27;20123;-65
2022/01/20 14:23:02;;;;;;;22.10;3.10;;;;;;;;;;5139344;27;20125;-64
2022/01/20 14:25:30;;;;;;;18.38;2.20;;;;;;;;;;5130394;27;20135;-65
2022/01/20 14:27:57;;;;;;;16.17;2.40;;;;;;;;;;5130002;27;20059;-64
2022/01/20 14:30:24;;;;;;;19.33;2.20;;;;;;;;;;5128145;27;20498;-64
2022/01/20 14:32:51;;;;;;;14.30;2.53;;;;;;;;;;5129871;27;20570;-65
2022/01/20 14:35:17;;;;;;;16.45;2.72;;;;;;;;;;5136861;27;20035;-65
2022/01/20 14:37:44;;;;;;;18.08;2.47;;;;;;;;;;5146369;27;20418;-64
2022/01/20 14:40:11;;;;;;;17.45;2.20;;;;;;;;;;5161686;27;20623;-64
2022/01/20 14:42:38;;;;;;;11.20;2.28;;;;;;;;;;5138322;27;20264;-63
2022/01/20 14:45:06;;;;;;;18.67;2.28;;;;;;;;;;5129664;27;20053;-64
2022/01/20 14:47:32;;;;;;;12.15;2.30;;;;;;;;;;5144857;27;20047;-65
2022/01/20 14:49:59;;;;;;;20.88;2.53;;;;;;;;;;5141962;27;20101;-65
2022/01/20 14:52:26;;;;;;;8.43;1.58;;;;;;;;;;5143681;27;20150;-66
2022/01/20 14:54:53;;;;;;;11.70;1.95;;;;;;;;;;5151835;27;20047;-64
2022/01/20 14:57:20;;;;;;;19.35;2.60;;;;;;;;;;5145231;27;22065;-64
2022/01/20 14:59:58;;;;;;;8.75;1.85;;;;;;;;;;5145252;27;20582;-64
2022/01/20 15:02:24;;;;;;;13.75;2.25;;;;;;;;;;5147793;27;20126;-65
2022/01/20 15:04:52;;;;;;;7.72;1.30;;;;;;;;;;5132803;27;20050;-65
2022/01/20 15:07:19;;;;;;;9.40;1.45;;;;;;;;;;5133394;27;20051;-65
2022/01/20 15:09:47;;;;;;;10.27;1.80;;;;;;;;;;5128929;27;20047;-65
2022/01/20 15:12:13;;;;;;;9.18;1.73;;;;;;;;;;5133532;27;20051;-65
2022/01/20 15:14:40;;;;;;;7.10;1.30;;;;;;;;;;5136236;27;20436;-65
2022/01/20 15:17:06;;;;;;;7.22;1.33;;;;;;;;;;5139652;27;20062;-64
2022/01/20 15:19:33;;;;;;;7.75;1.30;;;;;;;;;;5138369;27;20394;-64
2022/01/20 15:22:00;;;;;;;7.05;1.52;;;;;;;;;;5133130;27;20047;-65
2022/01/20 15:24:28;;;;;;;10.35;1.55;;;;;;;;;;5133723;27;20136;-65
2022/01/20 15:26:55;;;;;;;8.70;1.55;;;;;;;;;;5134034;27;20081;-65
2022/01/20 15:29:21;;;;;;;9.60;1.95;;;;;;;;;;5134874;27;20052;-65
2022/01/20 15:31:47;;;;;;;11.52;1.50;;;;;;;;;;5129340;27;20060;-65
2022/01/20 15:34:14;;;;;;;10.68;1.55;;;;;;;;;;5142218;27;20055;-65
2022/01/20 15:36:41;;;;;;;10.57;2.47;;;;;;;;;;5141749;27;20047;-65
2022/01/20 15:39:08;;;;;;;9.00;1.70;;;;;;;;;;5132676;27;20113;-65
2022/01/20 15:41:35;;;;;;;14.38;1.65;;;;;;;;;;5139579;27;20043;-65
2022/01/20 15:44:02;;;;;;;10.82;1.70;;;;;;;;;;5134857;27;20422;-65
2022/01/20 15:46:32;;;;;;;9.48;1.55;;;;;;;;;;5133773;27;20056;-65
2022/01/20 15:48:58;;;;;;;15.73;2.03;;;;;;;;;;5139023;27;20138;-65
2022/01/20 15:51:25;;;;;;;9.77;1.30;;;;;;;;;;5136041;27;20059;-65
2022/01/20 15:53:54;;;;;;;8.75;1.80;;;;;;;;;;5134340;27;21680;-64
2022/01/20 15:56:20;;;;;;;11.45;1.92;;;;;;;;;;5137427;27;20062;-65
2022/01/20 15:58:47;;;;;;;21.65;2.40;;;;;;;;;;5135366;27;20061;-65